createdAt,value
2023-05-10T00:00:46.433Z,9.719823
2023-05-10T00:01:46.402Z,9.719616
2023-05-10T00:02:46.594Z,9.719736
2023-05-10T00:03:46.467Z,9.719681
2023-05-10T00:04:46.374Z,9.719533
2023-05-10T00:05:46.392Z,9.719515
2023-05-10T00:06:46.370Z,9.719544
2023-05-10T00:07:46.349Z,9.719581
2023-05-10T00:08:46.347Z,9.719604
2023-05-10T00:09:46.309Z,9.719511
2023-05-10T00:10:46.349Z,9.719526
2023-05-10T00:11:46.309Z,9.719463
2023-05-10T00:12:47.328Z,9.719470
2023-05-10T00:13:46.283Z,9.719391
2023-05-10T00:14:46.282Z,9.719363
2023-05-10T00:15:46.300Z,9.719347
2023-05-10T00:16:46.352Z,9.719404
2023-05-10T00:17:46.286Z,9.719337
2023-05-10T00:18:46.242Z,9.719294
2023-05-10T00:19:46.226Z,9.719391
2023-05-10T00:20:46.235Z,9.719341
2023-05-10T00:21:46.248Z,9.719385
2023-05-10T00:22:46.199Z,9.719299
2023-05-10T00:23:46.234Z,9.719302
2023-05-10T00:24:46.189Z,9.719054
2023-05-10T00:25:46.193Z,9.719229
2023-05-10T00:26:46.164Z,9.719297
2023-05-10T00:27:46.166Z,9.719340
2023-05-10T00:28:46.136Z,9.719347
2023-05-10T00:29:46.156Z,9.719348
2023-05-10T00:30:46.122Z,9.719255
2023-05-10T00:31:46.172Z,9.719164
2023-05-10T00:32:46.200Z,9.719190
2023-05-10T00:33:46.085Z,9.719114
2023-05-10T00:34:46.128Z,9.719150
2023-05-10T00:35:46.083Z,9.719205
2023-05-10T00:36:46.074Z,9.719206
2023-05-10T00:37:46.052Z,9.719173
2023-05-10T00:38:46.037Z,9.719196
2023-05-10T00:39:46.050Z,9.719228
2023-05-10T00:40:46.018Z,9.719189
2023-05-10T00:41:46.066Z,9.719239
2023-05-10T00:42:46.038Z,9.719460
2023-05-10T00:43:45.981Z,9.719337
2023-05-10T00:44:45.976Z,9.719117
2023-05-10T00:45:46.063Z,9.719104
2023-05-10T00:46:45.967Z,9.719143
2023-05-10T00:47:45.983Z,9.719240
2023-05-10T00:48:45.932Z,9.719315
2023-05-10T00:49:45.952Z,9.719370
2023-05-10T00:50:45.930Z,9.719583
2023-05-10T00:51:45.905Z,9.719399
2023-05-10T00:52:45.915Z,9.719433
2023-05-10T00:53:45.907Z,9.719282
2023-05-10T00:54:46.885Z,9.719418
2023-05-10T00:55:45.883Z,9.719548
2023-05-10T00:56:45.874Z,9.719408
2023-05-10T00:57:45.854Z,9.719340
2023-05-10T00:58:45.907Z,9.719243
2023-05-10T00:59:45.826Z,9.719319
2023-05-10T01:00:45.815Z,9.719336
2023-05-10T01:01:45.868Z,9.719382
2023-05-10T01:02:45.937Z,9.719339
2023-05-10T01:03:45.808Z,9.719113
2023-05-10T01:04:45.815Z,9.719088
2023-05-10T01:05:45.784Z,9.719130
2023-05-10T01:06:45.756Z,9.719126
2023-05-10T01:07:45.740Z,9.719131
2023-05-10T01:15:22.810Z,9.719130
2023-05-10T01:16:22.839Z,9.719181
2023-05-10T01:17:22.820Z,9.719136
2023-05-10T01:18:22.792Z,9.719093
2023-05-10T01:19:22.753Z,9.719156
2023-05-10T01:20:22.744Z,9.719230
2023-05-10T01:21:22.731Z,9.719220
2023-05-10T01:22:22.743Z,9.719208
2023-05-10T01:23:22.729Z,9.719183
2023-05-10T01:24:22.695Z,9.719144
2023-05-10T01:25:22.705Z,9.719154
2023-05-10T01:26:22.695Z,9.719178
2023-05-10T01:27:22.676Z,9.719230
2023-05-10T01:28:22.669Z,9.719239
2023-05-10T01:29:22.677Z,9.719245
2023-05-10T01:30:22.746Z,9.719280
2023-05-10T01:31:22.712Z,9.719258
2023-05-10T01:32:22.684Z,9.719226
2023-05-10T01:33:22.655Z,9.719311
2023-05-10T01:34:22.617Z,9.719352
2023-05-10T01:35:22.593Z,9.719235
2023-05-10T01:36:22.594Z,9.719276
2023-05-10T01:37:22.631Z,9.719349
2023-05-10T01:38:22.565Z,9.719246
2023-05-10T01:39:22.576Z,9.719160
2023-05-10T01:40:22.569Z,9.719224
2023-05-10T01:41:22.620Z,9.719289
2023-05-10T01:42:22.536Z,9.719217
2023-05-10T01:43:22.534Z,9.719275
2023-05-10T01:44:22.549Z,9.719297
2023-05-10T01:45:22.548Z,9.719198
2023-05-10T01:46:22.497Z,9.719021
2023-05-10T01:47:22.484Z,9.719054
2023-05-10T01:48:22.468Z,9.719233
2023-05-10T01:49:22.480Z,9.719289
2023-05-10T01:50:22.456Z,9.719218
2023-05-10T01:51:22.437Z,9.719236
2023-05-10T01:52:22.474Z,9.719249
2023-05-10T01:53:22.446Z,9.719234
2023-05-10T01:54:22.433Z,9.719159
2023-05-10T01:55:22.415Z,9.719245
2023-05-10T01:56:22.446Z,9.719267
2023-05-10T01:57:22.394Z,9.719171
2023-05-10T01:58:22.371Z,9.719126
2023-05-10T01:59:22.374Z,9.719181
2023-05-10T02:00:22.338Z,9.719234
2023-05-10T02:01:22.640Z,9.719323
2023-05-10T02:02:22.333Z,9.719349
2023-05-10T02:03:22.368Z,9.719355
2023-05-10T02:04:22.313Z,9.719410
2023-05-10T02:05:22.317Z,9.719505
2023-05-10T02:06:22.286Z,9.719419
2023-05-10T02:07:22.282Z,9.719268
2023-05-10T02:08:22.284Z,9.719317
2023-05-10T02:09:22.269Z,9.719252
2023-05-10T02:10:22.235Z,9.719267
2023-05-10T02:11:22.309Z,9.719289
2023-05-10T02:12:22.220Z,9.719325
2023-05-10T02:13:22.256Z,9.719243
2023-05-10T02:14:22.200Z,9.719384
2023-05-10T02:15:22.191Z,9.719510
2023-05-10T02:16:22.305Z,9.719435
2023-05-10T02:17:22.166Z,9.719355
2023-05-10T02:18:22.157Z,9.719294
2023-05-10T02:19:22.149Z,9.719194
2023-05-10T02:20:22.135Z,9.719321
2023-05-10T02:21:22.146Z,9.719327
2023-05-10T02:22:22.169Z,9.719361
2023-05-10T02:23:22.125Z,9.719295
2023-05-10T02:24:22.097Z,9.719305
2023-05-10T02:25:22.094Z,9.719472
2023-05-10T02:26:22.115Z,9.719477
2023-05-10T02:27:22.061Z,9.719446
2023-05-10T02:28:22.064Z,9.719347
2023-05-10T02:29:22.073Z,9.719350
2023-05-10T02:30:22.072Z,9.719204
2023-05-10T02:31:22.106Z,9.719200
2023-05-10T02:32:22.029Z,9.719237
2023-05-10T02:33:22.003Z,9.719222
2023-05-10T02:34:22.015Z,9.719133
2023-05-10T02:35:22.018Z,9.719265
2023-05-10T02:36:21.994Z,9.719268
2023-05-10T02:37:21.973Z,9.719214
2023-05-10T02:38:21.993Z,9.719117
2023-05-10T02:39:21.933Z,9.719201
2023-05-10T02:40:21.959Z,9.719205
2023-05-10T02:41:21.967Z,9.719335
2023-05-10T02:42:22.921Z,9.719173
2023-05-10T02:43:21.975Z,9.718830
2023-05-10T02:44:21.886Z,9.718945
2023-05-10T02:45:21.877Z,9.719185
2023-05-10T02:46:21.917Z,9.719110
2023-05-10T02:47:21.857Z,9.719248
2023-05-10T02:48:21.870Z,9.719131
2023-05-10T02:49:21.855Z,9.719158
2023-05-10T02:50:21.840Z,9.719324
2023-05-10T02:51:21.824Z,9.719367
2023-05-10T02:52:21.833Z,9.719344
2023-05-10T02:53:21.837Z,9.719190
2023-05-10T02:54:21.800Z,9.719163
2023-05-10T02:55:21.804Z,9.719159
2023-05-10T02:56:21.796Z,9.719233
2023-05-10T02:57:21.774Z,9.719075
2023-05-10T02:58:22.796Z,9.719110
2023-05-10T02:59:21.750Z,9.719131
2023-05-10T03:00:21.737Z,9.719053
2023-05-10T03:01:21.756Z,9.719112
2023-05-10T03:02:21.719Z,9.719214
2023-05-10T03:03:21.713Z,9.719132
2023-05-10T03:04:21.755Z,9.719150
2023-05-10T03:05:21.679Z,9.719190
2023-05-10T03:06:21.667Z,9.719155
2023-05-10T03:07:21.721Z,9.719153
2023-05-10T03:08:21.655Z,9.719176
2023-05-10T03:09:21.659Z,9.719172
2023-05-10T03:10:21.659Z,9.719215
2023-05-10T03:11:21.655Z,9.719183
2023-05-10T03:12:21.626Z,9.719201
2023-05-10T03:13:21.678Z,9.719173
2023-05-10T03:14:21.616Z,9.719171
2023-05-10T03:15:21.616Z,9.719018
2023-05-10T03:16:21.627Z,9.719119
2023-05-10T03:17:21.609Z,9.719059
2023-05-10T03:18:21.561Z,9.719137
2023-05-10T03:19:21.562Z,9.719078
2023-05-10T03:20:21.576Z,9.719213
2023-05-10T03:21:21.527Z,9.719330
2023-05-10T03:22:21.512Z,9.719316
2023-05-10T03:23:21.507Z,9.719156
2023-05-10T03:24:21.536Z,9.718762
2023-05-10T03:25:21.498Z,9.718833
2023-05-10T03:26:21.487Z,9.719161
2023-05-10T03:27:22.460Z,9.719654
2023-05-10T03:28:21.463Z,9.719522
2023-05-10T03:29:21.448Z,9.719290
2023-05-10T03:30:21.466Z,9.719133
2023-05-10T03:31:21.460Z,9.719018
2023-05-10T03:32:21.440Z,9.719192
2023-05-10T03:33:21.427Z,9.719114
2023-05-10T03:34:21.385Z,9.719331
2023-05-10T03:35:21.403Z,9.719288
2023-05-10T03:36:21.368Z,9.719284
2023-05-10T03:37:21.378Z,9.719376
2023-05-10T03:38:21.359Z,9.719677
2023-05-10T03:39:21.364Z,9.719741
2023-05-10T03:40:21.347Z,9.719235
2023-05-10T03:41:21.344Z,9.719193
2023-05-10T03:42:21.322Z,9.719119
2023-05-10T03:43:21.326Z,9.719350
2023-05-10T03:44:21.293Z,9.719493
2023-05-10T03:45:21.282Z,9.719277
2023-05-10T03:46:21.311Z,9.719245
2023-05-10T03:47:21.295Z,9.719175
2023-05-10T03:48:21.262Z,9.719190
2023-05-10T03:49:21.242Z,9.719234
2023-05-10T03:50:21.257Z,9.719157
2023-05-10T03:51:22.221Z,9.719122
2023-05-10T03:52:21.245Z,9.719267
2023-05-10T03:53:21.204Z,9.719222
2023-05-10T03:54:21.245Z,9.719281
2023-05-10T03:55:21.204Z,9.719247
2023-05-10T03:56:21.189Z,9.719162
2023-05-10T03:57:21.166Z,9.719175
2023-05-10T03:58:21.187Z,9.719156
2023-05-10T03:59:21.181Z,9.719167
2023-05-10T04:00:21.137Z,9.719247
2023-05-10T04:01:21.128Z,9.719215
2023-05-10T04:02:21.181Z,9.719251
2023-05-10T04:03:21.237Z,9.719151
2023-05-10T04:04:21.124Z,9.719180
2023-05-10T04:05:21.207Z,9.719193
2023-05-10T04:06:21.110Z,9.719181
2023-05-10T04:07:21.112Z,9.719215
2023-05-10T04:08:21.065Z,9.719206
2023-05-10T04:09:21.092Z,9.719212
2023-05-10T04:10:21.051Z,9.719150
2023-05-10T04:11:21.044Z,9.719162
2023-05-10T04:12:21.023Z,9.719275
2023-05-10T04:13:21.153Z,9.719383
2023-05-10T04:14:21.048Z,9.719356
2023-05-10T04:15:20.996Z,9.719260
2023-05-10T04:16:21.100Z,9.719130
2023-05-10T04:17:21.024Z,9.719259
2023-05-10T04:18:20.996Z,9.719224
2023-05-10T04:19:21.038Z,9.719271
2023-05-10T04:20:20.960Z,9.719283
2023-05-10T04:21:20.946Z,9.719249
2023-05-10T04:22:20.925Z,9.719269
2023-05-10T04:23:20.914Z,9.719348
2023-05-10T04:24:20.914Z,9.719286
2023-05-10T04:25:20.922Z,9.719262
2023-05-10T04:26:20.889Z,9.719192
2023-05-10T04:27:20.913Z,9.719363
2023-05-10T04:28:20.872Z,9.719440
2023-05-10T04:29:20.882Z,9.719335
2023-05-10T04:30:20.852Z,9.719193
2023-05-10T04:31:20.874Z,9.719159
2023-05-10T04:32:20.829Z,9.719234
2023-05-10T04:36:40.424Z,9.719249
2023-05-10T04:37:40.473Z,9.719364
2023-05-10T04:38:40.421Z,9.719443
2023-05-10T04:39:42.338Z,9.719576
2023-05-10T04:40:41.394Z,9.719685
2023-05-10T04:41:40.421Z,9.719639
2023-05-10T04:42:40.390Z,9.719756
2023-05-10T04:43:40.386Z,9.719565
2023-05-10T04:44:40.355Z,9.719628
2023-05-10T04:45:40.338Z,9.719590
2023-05-10T04:46:40.476Z,9.719635
2023-05-10T04:47:40.435Z,9.719688
2023-05-10T04:48:40.336Z,9.719726
2023-05-10T04:49:40.347Z,9.719751
2023-05-10T04:50:40.303Z,9.719778
2023-05-10T04:51:40.284Z,9.719697
2023-05-10T04:52:40.300Z,9.719634
2023-05-10T04:53:40.978Z,9.719566
2023-05-10T04:54:40.253Z,9.719494
2023-05-10T04:55:40.277Z,9.719517
2023-05-10T04:56:40.244Z,9.719246
2023-05-10T04:57:40.238Z,9.719362
2023-05-10T04:58:40.212Z,9.719595
2023-05-10T04:59:40.231Z,9.719440
2023-05-10T05:00:40.216Z,9.719464
2023-05-10T05:01:40.274Z,9.719399
2023-05-10T05:02:40.193Z,9.719259
2023-05-10T05:03:40.285Z,9.719177
2023-05-10T05:04:40.151Z,9.719293
2023-05-10T05:05:40.158Z,9.719570
2023-05-10T05:06:40.156Z,9.719294
2023-05-10T05:07:40.125Z,9.719054
2023-05-10T05:08:40.120Z,9.719150
2023-05-10T05:09:40.124Z,9.719294
2023-05-10T05:10:40.112Z,9.719225
2023-05-10T05:11:40.085Z,9.719208
2023-05-10T05:12:40.076Z,9.719398
2023-05-10T05:13:40.103Z,9.719357
2023-05-10T05:14:40.063Z,9.719494
2023-05-10T05:15:40.058Z,9.719330
2023-05-10T05:16:40.098Z,9.719443
2023-05-10T05:17:40.073Z,9.719340
2023-05-10T05:18:40.027Z,9.719217
2023-05-10T05:19:41.035Z,9.719024
2023-05-10T05:20:40.005Z,9.719471
2023-05-10T05:21:40.014Z,9.719490
2023-05-10T05:22:39.989Z,9.719060
2023-05-10T05:23:40.004Z,9.719030
2023-05-10T05:24:39.953Z,9.719182
2023-05-10T05:25:39.959Z,9.719500
2023-05-10T05:26:39.958Z,9.718957
2023-05-10T05:27:40.007Z,9.718430
2023-05-10T05:28:40.034Z,9.718430
2023-05-10T05:29:39.965Z,9.718430
2023-05-10T05:30:39.896Z,9.718430
2023-05-10T05:31:39.919Z,9.718430
2023-05-10T05:32:39.899Z,9.718430
2023-05-10T05:33:39.854Z,9.718430
2023-05-10T05:34:39.871Z,9.718430
2023-05-10T05:35:39.849Z,9.718430
2023-05-10T05:36:39.842Z,9.718430
2023-05-10T05:37:39.841Z,9.718430
2023-05-10T05:38:39.806Z,9.718430
2023-05-10T05:39:39.819Z,9.719726
2023-05-10T05:40:39.802Z,9.719433
2023-05-10T05:41:39.776Z,9.719317
2023-05-10T05:42:39.849Z,9.719252
2023-05-10T05:43:39.768Z,9.719263
2023-05-10T05:44:39.753Z,9.719252
2023-05-10T05:45:39.767Z,9.719306
2023-05-10T05:46:39.766Z,9.719342
2023-05-10T05:47:39.848Z,9.719229
2023-05-10T05:48:39.730Z,9.719171
2023-05-10T05:49:39.715Z,9.719192
2023-05-10T05:50:39.695Z,9.719237
2023-05-10T05:51:39.691Z,9.719159
2023-05-10T05:52:39.671Z,9.719167
2023-05-10T05:53:39.722Z,9.719092
2023-05-10T05:54:39.658Z,9.719074
2023-05-10T05:55:39.640Z,9.719009
2023-05-10T05:56:39.644Z,9.719036
2023-05-10T05:57:39.623Z,9.719092
2023-05-10T05:58:39.605Z,9.719049
2023-05-10T05:59:39.606Z,9.719076
2023-05-10T06:00:39.617Z,9.719125
2023-05-10T06:01:39.591Z,9.719090
2023-05-10T06:02:39.633Z,9.719114
2023-05-10T06:03:39.719Z,9.719151
2023-05-10T06:04:41.526Z,9.719130
2023-05-10T06:05:39.561Z,9.719060
2023-05-10T06:06:39.615Z,9.719139
2023-05-10T06:07:39.513Z,9.719108
2023-05-10T06:08:39.520Z,9.719119
2023-05-10T06:09:39.504Z,9.719095
2023-05-10T06:10:39.520Z,9.719150
2023-05-10T06:11:39.501Z,9.719189
2023-05-10T06:12:39.474Z,9.719131
2023-05-10T06:13:39.446Z,9.719075
2023-05-10T06:14:39.471Z,9.719157
2023-05-10T06:15:39.430Z,9.719212
2023-05-10T06:16:39.503Z,9.719168
2023-05-10T06:17:39.436Z,9.719151
2023-05-10T06:18:39.408Z,9.719154
2023-05-10T06:19:39.400Z,9.719175
2023-05-10T06:20:39.414Z,9.719135
2023-05-10T06:21:39.437Z,9.719085
2023-05-10T06:22:39.408Z,9.719154
2023-05-10T06:23:39.351Z,9.719136
2023-05-10T06:24:39.391Z,9.718921
2023-05-10T06:25:39.337Z,9.718962
2023-05-10T06:26:39.355Z,9.719116
2023-05-10T06:27:39.313Z,9.719110
2023-05-10T06:28:39.338Z,9.719152
2023-05-10T06:29:39.291Z,9.719124
2023-05-10T06:30:39.339Z,9.719131
2023-05-10T06:31:39.368Z,9.719145
2023-05-10T06:32:39.292Z,9.719215
2023-05-10T06:33:39.270Z,9.719210
2023-05-10T06:34:39.261Z,9.719207
2023-05-10T06:35:39.256Z,9.719208
2023-05-10T06:36:39.245Z,9.719214
2023-05-10T06:37:39.216Z,9.719251
2023-05-10T06:38:39.241Z,9.719200
2023-05-10T06:39:39.209Z,9.719173
2023-05-10T06:40:39.170Z,9.719060
2023-05-10T06:41:39.194Z,9.719103
2023-05-10T06:42:39.191Z,9.719265
2023-05-10T06:43:39.159Z,9.719198
2023-05-10T06:44:39.151Z,9.719172
2023-05-10T06:45:39.129Z,9.719239
2023-05-10T06:46:39.156Z,9.719194
2023-05-10T06:47:39.533Z,9.719217
2023-05-10T06:48:39.115Z,9.719247
2023-05-10T06:49:39.115Z,9.719276
2023-05-10T06:50:39.112Z,9.719413
2023-05-10T06:51:39.103Z,9.719427
2023-05-10T06:52:39.076Z,9.719232
2023-05-10T06:53:39.066Z,9.719247
2023-05-10T06:54:39.057Z,9.719202
2023-05-10T06:55:39.081Z,9.718727
2023-05-10T06:56:39.041Z,9.719185
2023-05-10T06:57:39.032Z,9.718933
2023-05-10T06:58:39.085Z,9.718951
2023-05-10T06:59:39.065Z,9.718970
2023-05-10T07:00:39.035Z,9.719291
2023-05-10T07:01:39.045Z,9.719492
2023-05-10T07:02:39.050Z,9.719235
2023-05-10T07:03:38.956Z,9.719036
2023-05-10T07:04:39.044Z,9.718960
2023-05-10T07:05:39.030Z,9.719230
2023-05-10T07:06:38.931Z,9.719112
2023-05-10T07:07:38.928Z,9.718977
2023-05-10T07:08:38.932Z,9.719320
2023-05-10T07:09:38.937Z,9.719202
2023-05-10T07:10:38.915Z,9.719044
2023-05-10T07:11:38.871Z,9.718995
2023-05-10T07:12:38.944Z,9.718735
2023-05-10T07:13:38.944Z,9.719335
2023-05-10T07:14:38.841Z,9.719152
2023-05-10T07:15:38.844Z,9.718813
2023-05-10T07:16:39.013Z,9.718975
2023-05-10T07:17:38.913Z,9.719138
2023-05-10T07:18:38.852Z,9.719264
2023-05-10T07:19:38.805Z,9.719306
2023-05-10T07:20:38.815Z,9.719288
2023-05-10T07:21:38.768Z,9.719247
2023-05-10T07:22:38.777Z,9.719067
2023-05-10T07:23:38.774Z,9.718942
2023-05-10T07:24:38.764Z,9.719128
2023-05-10T07:25:38.738Z,9.719202
2023-05-10T07:26:38.772Z,9.719312
2023-05-10T07:27:38.723Z,9.719202
2023-05-10T07:28:38.739Z,9.719079
2023-05-10T07:29:38.693Z,9.719128
2023-05-10T07:30:38.729Z,9.719257
2023-05-10T07:31:39.691Z,9.719229
2023-05-10T07:32:38.759Z,9.719345
2023-05-10T07:33:38.710Z,9.719151
2023-05-10T07:34:38.660Z,9.719146
2023-05-10T07:35:38.653Z,9.719197
2023-05-10T07:36:38.624Z,9.719336
2023-05-10T07:37:38.611Z,9.719285
2023-05-10T07:38:40.802Z,9.719200
2023-05-10T07:39:38.598Z,9.719212
2023-05-10T07:40:38.608Z,9.719175
2023-05-10T07:41:38.583Z,9.719363
2023-05-10T07:42:38.556Z,9.719245
2023-05-10T07:43:38.552Z,9.719197
2023-05-10T07:44:38.539Z,9.719125
2023-05-10T07:45:38.559Z,9.719200
2023-05-10T07:46:38.589Z,9.719141
2023-05-10T07:47:38.540Z,9.719079
2023-05-10T07:48:38.615Z,9.719308
2023-05-10T07:49:38.501Z,9.719195
2023-05-10T07:50:38.470Z,9.719212
2023-05-10T07:51:38.483Z,9.719265
2023-05-10T07:52:38.466Z,9.719148
2023-05-10T07:53:38.461Z,9.719228
2023-05-10T07:54:38.460Z,9.719311
2023-05-10T07:55:38.446Z,9.719300
2023-05-10T07:56:38.449Z,9.719360
2023-05-10T07:57:38.404Z,9.719253
2023-05-10T07:58:38.395Z,9.719292
2023-05-10T07:59:38.406Z,9.719367
2023-05-10T08:00:38.372Z,9.719530
2023-05-10T08:01:38.398Z,9.719263
2023-05-10T08:02:38.493Z,9.719410
2023-05-10T08:03:38.417Z,9.719272
2023-05-10T08:04:38.467Z,9.719036
2023-05-10T08:05:38.336Z,9.719141
2023-05-10T08:06:38.320Z,9.719343
2023-05-10T08:07:38.328Z,9.719352
2023-05-10T08:08:38.432Z,9.719310
2023-05-10T08:09:38.291Z,9.719277
2023-05-10T08:10:38.278Z,9.719291
2023-05-10T08:11:38.312Z,9.719258
2023-05-10T08:12:38.331Z,9.718834
2023-05-10T08:13:38.264Z,9.719197
2023-05-10T08:14:38.258Z,9.719207
2023-05-10T08:15:38.235Z,9.719207
2023-05-10T08:16:38.214Z,9.719207
2023-05-10T08:17:38.291Z,9.719375
2023-05-10T08:18:38.220Z,9.719964
2023-05-10T08:19:38.207Z,9.719964
2023-05-10T08:20:38.171Z,9.719964
2023-05-10T08:21:38.185Z,9.719964
2023-05-10T08:22:38.157Z,9.719964
2023-05-10T08:23:38.133Z,9.719478
2023-05-10T08:24:38.144Z,9.719547
2023-05-10T08:25:38.138Z,9.719341
2023-05-10T08:26:38.129Z,9.719102
2023-05-10T08:27:38.090Z,9.719130
2023-05-10T08:28:38.098Z,9.719158
2023-05-10T08:29:48.825Z,9.719789
2023-05-10T08:30:40.075Z,9.720457
2023-05-10T08:31:38.171Z,9.720782
2023-05-10T08:32:38.103Z,9.720782
2023-05-10T08:33:39.076Z,9.720782
2023-05-10T08:34:38.045Z,9.720492
2023-05-10T08:35:38.025Z,9.720329
2023-05-10T08:36:38.038Z,9.719887
2023-05-10T08:37:38.033Z,9.719641
2023-05-10T08:38:38.024Z,9.719610
2023-05-10T08:39:37.982Z,9.719610
2023-05-10T08:40:38.132Z,9.719704
2023-05-10T08:41:37.980Z,9.719707
2023-05-10T08:42:37.952Z,9.719523
2023-05-10T08:43:37.989Z,9.719285
2023-05-10T08:44:38.048Z,9.719174
2023-05-10T08:45:37.950Z,9.719138
2023-05-10T08:46:37.953Z,9.719116
2023-05-10T08:47:37.918Z,9.718915
2023-05-10T08:48:37.915Z,9.718729
2023-05-10T08:49:37.917Z,9.719326
2023-05-10T08:50:37.876Z,9.719201
2023-05-10T08:51:37.917Z,9.719104
2023-05-10T08:52:37.880Z,9.718960
2023-05-10T08:53:37.868Z,9.718823
2023-05-10T08:54:37.891Z,9.718868
2023-05-10T08:55:37.830Z,9.719036
2023-05-10T08:56:38.025Z,9.719076
2023-05-10T08:57:37.815Z,9.719156
2023-05-10T08:58:37.864Z,9.719039
2023-05-10T08:59:37.801Z,9.719451
2023-05-10T09:00:37.812Z,9.719444
2023-05-10T09:01:37.781Z,9.719437
2023-05-10T09:02:37.802Z,9.719015
2023-05-10T09:03:37.785Z,9.719126
2023-05-10T09:04:37.841Z,9.719190
2023-05-10T09:05:37.729Z,9.719132
2023-05-10T09:06:37.872Z,9.719240
2023-05-10T09:07:37.724Z,9.719345
2023-05-10T09:08:37.715Z,9.719347
2023-05-10T09:09:37.734Z,9.719466
2023-05-10T09:10:37.697Z,9.719501
2023-05-10T09:11:37.715Z,9.719375
2023-05-10T09:12:37.662Z,9.719380
2023-05-10T09:13:37.644Z,9.719405
2023-05-10T09:14:38.662Z,9.719346
2023-05-10T09:15:37.654Z,9.719393
2023-05-10T09:16:37.756Z,9.719425
2023-05-10T09:17:37.699Z,9.719452
2023-05-10T09:18:38.762Z,9.719405
2023-05-10T09:19:37.642Z,9.719365
2023-05-10T09:20:37.620Z,9.719356
2023-05-10T09:21:37.570Z,9.719378
2023-05-10T09:22:37.593Z,9.719357
2023-05-10T09:23:37.575Z,9.719428
2023-05-10T09:24:37.541Z,9.719394
2023-05-10T09:25:37.554Z,9.719436
2023-05-10T09:26:37.526Z,9.719329
2023-05-10T09:27:37.519Z,9.719299
2023-05-10T09:28:37.524Z,9.719410
2023-05-10T09:29:37.548Z,9.719349
2023-05-10T09:30:37.550Z,9.719410
2023-05-10T09:31:37.514Z,9.719376
2023-05-10T09:32:37.498Z,9.719463
2023-05-10T09:33:37.453Z,9.719489
2023-05-10T09:34:37.508Z,9.719303
2023-05-10T09:35:37.431Z,9.719301
2023-05-10T09:36:37.463Z,9.719334
2023-05-10T09:37:37.410Z,9.719334
2023-05-10T09:38:37.410Z,9.719292
2023-05-10T09:39:37.385Z,9.719244
2023-05-10T09:40:37.388Z,9.719255
2023-05-10T09:41:37.379Z,9.719170
2023-05-10T09:42:37.379Z,9.719374
2023-05-10T09:43:37.414Z,9.719311
2023-05-10T09:44:37.340Z,9.719287
2023-05-10T09:45:38.882Z,9.719303
2023-05-10T09:46:37.444Z,9.719112
2023-05-10T09:47:37.377Z,9.719120
2023-05-10T09:48:37.303Z,9.718843
2023-05-10T09:49:37.291Z,9.718966
2023-05-10T09:50:37.295Z,9.718987
2023-05-10T09:51:37.287Z,9.719101
2023-05-10T09:52:37.314Z,9.719130
2023-05-10T09:53:37.304Z,9.719115
2023-05-10T09:54:37.265Z,9.719143
2023-05-10T09:55:37.257Z,9.719276
2023-05-10T09:56:37.317Z,9.719242
2023-05-10T09:57:37.224Z,9.719131
2023-05-10T09:58:37.222Z,9.719090
2023-05-10T09:59:37.258Z,9.719033
2023-05-10T10:00:37.190Z,9.719150
2023-05-10T10:01:37.188Z,9.719109
2023-05-10T10:02:37.211Z,9.719218
2023-05-10T10:03:37.152Z,9.719254
2023-05-10T10:04:37.185Z,9.719186
2023-05-10T10:05:37.151Z,9.719114
2023-05-10T10:06:37.223Z,9.718991
2023-05-10T10:07:37.125Z,9.719106
2023-05-10T10:08:37.159Z,9.719129
2023-05-10T10:09:37.131Z,9.719139
2023-05-10T10:10:37.150Z,9.719134
2023-05-10T10:11:37.084Z,9.719169
2023-05-10T10:12:37.112Z,9.719220
2023-05-10T10:13:37.066Z,9.719164
2023-05-10T10:14:37.082Z,9.719172
2023-05-10T10:15:37.105Z,9.719045
2023-05-10T10:16:39.958Z,9.719079
2023-05-10T10:17:37.044Z,9.719195
2023-05-10T10:18:37.057Z,9.719381
2023-05-10T10:19:37.497Z,9.719365
2023-05-10T10:20:37.008Z,9.719370
2023-05-10T10:21:36.994Z,9.719332
2023-05-10T10:22:36.976Z,9.719421
2023-05-10T10:23:36.980Z,9.719496
2023-05-10T10:24:37.039Z,9.719550
2023-05-10T10:25:36.962Z,9.719490
2023-05-10T10:26:36.956Z,9.719485
2023-05-10T10:27:36.939Z,9.719486
2023-05-10T10:28:36.947Z,9.719416
2023-05-10T10:29:36.922Z,9.719393
2023-05-10T10:30:36.896Z,9.719391
2023-05-10T10:31:36.948Z,9.719421
2023-05-10T10:32:36.895Z,9.719390
2023-05-10T10:34:08.805Z,9.719405
2023-05-10T10:34:36.899Z,9.719257
2023-05-10T10:35:36.852Z,9.719344
2023-05-10T10:36:36.852Z,9.719234
2023-05-10T10:37:36.824Z,9.718907
2023-05-10T10:38:37.849Z,9.719000
2023-05-10T10:39:36.818Z,9.719151
2023-05-10T10:40:36.822Z,9.719326
2023-05-10T10:41:36.799Z,9.719401
2023-05-10T10:42:36.818Z,9.719271
2023-05-10T10:43:36.768Z,9.719429
2023-05-10T10:44:36.752Z,9.719377
2023-05-10T10:45:36.777Z,9.719373
2023-05-10T10:46:36.818Z,9.719368
2023-05-10T10:47:36.777Z,9.719407
2023-05-10T10:48:36.722Z,9.719345
2023-05-10T10:49:36.709Z,9.719303
2023-05-10T10:50:36.728Z,9.719446
2023-05-10T10:51:36.698Z,9.719437
2023-05-10T10:52:36.687Z,9.719423
2023-05-10T10:53:36.747Z,9.719377
2023-05-10T10:54:36.667Z,9.719236
2023-05-10T10:55:36.658Z,9.719334
2023-05-10T10:56:37.150Z,9.719449
2023-05-10T10:57:36.694Z,9.719329
2023-05-10T10:58:36.630Z,9.719378
2023-05-10T10:59:36.648Z,9.719329
2023-05-10T11:00:36.671Z,9.719294
2023-05-10T11:01:36.784Z,9.719374
2023-05-10T11:02:36.618Z,9.719511
2023-05-10T11:03:36.610Z,9.719457
2023-05-10T11:04:36.653Z,9.718932
2023-05-10T11:05:36.569Z,9.718985
2023-05-10T11:06:36.749Z,9.719193
2023-05-10T11:07:36.533Z,9.719296
2023-05-10T11:08:38.233Z,9.719149
2023-05-10T11:09:36.530Z,9.719293
2023-05-10T11:10:36.547Z,9.719004
2023-05-10T11:11:36.560Z,9.719289
2023-05-10T11:12:36.554Z,9.719132
2023-05-10T11:13:36.495Z,9.719275
2023-05-10T11:14:36.476Z,9.719133
2023-05-10T11:15:36.468Z,9.719065
2023-05-10T11:16:36.494Z,9.719203
2023-05-10T11:17:36.540Z,9.718723
2023-05-10T11:18:36.429Z,9.718349
2023-05-10T11:19:36.459Z,9.719300
2023-05-10T11:20:36.455Z,9.718615
2023-05-10T11:21:36.401Z,9.718094
2023-05-10T11:22:36.407Z,9.719167
2023-05-10T11:23:36.379Z,9.719521
2023-05-10T11:24:36.398Z,9.719363
2023-05-10T11:25:36.370Z,9.719221
2023-05-10T11:26:36.346Z,9.719182
2023-05-10T11:27:36.364Z,9.719136
2023-05-10T11:28:36.324Z,9.719008
2023-05-10T11:29:36.304Z,9.719134
2023-05-10T11:30:36.343Z,9.719165
2023-05-10T11:31:36.395Z,9.719080
2023-05-10T11:32:36.330Z,9.719100
2023-05-10T11:33:36.278Z,9.719118
2023-05-10T11:34:36.259Z,9.719152
2023-05-10T11:35:36.254Z,9.719130
2023-05-10T11:36:36.269Z,9.719215
2023-05-10T11:37:36.251Z,9.719257
2023-05-10T11:38:36.257Z,9.719254
2023-05-10T11:39:36.247Z,9.719270
2023-05-10T11:40:36.203Z,9.719271
2023-05-10T11:41:36.200Z,9.719181
2023-05-10T11:42:36.216Z,9.719245
2023-05-10T11:43:36.224Z,9.719204
2023-05-10T11:44:36.191Z,9.719217
2023-05-10T11:45:36.187Z,9.719142
2023-05-10T11:46:36.216Z,9.719234
2023-05-10T11:47:36.242Z,9.719196
2023-05-10T11:48:36.161Z,9.719242
2023-05-10T11:49:36.140Z,9.719217
2023-05-10T11:50:36.159Z,9.719229
2023-05-10T11:51:36.093Z,9.719201
2023-05-10T11:52:36.099Z,9.719199
2023-05-10T11:53:36.092Z,9.719158
2023-05-10T11:54:36.113Z,9.719214